Time;durP1;ratioP1;P1;durP2;ratioP2;P2;SDS_P1;SDS_P2;PMS_P1;PMS_P2;Temp;Humidity;BMP_temperature;BMP_pressure;BME280_temperature;BME280_humidity;BME280_pressure;Samples;Min_cycle;Max_cycle;Signal;HPM_P1;HPM_P2
2023/07/17 00:02:05;;;;;;;3.65;1.63;;;;;;;17.27;76.12;101497.84;5098330;28;20323;-83
2023/07/17 00:04:30;;;;;;;6.72;1.55;;;;;;;17.27;75.85;101497.00;5097709;28;20056;-85
2023/07/17 00:06:55;;;;;;;4.43;1.48;;;;;;;17.26;76.09;101500.59;5098188;28;20027;-84
2023/07/17 00:09:21;;;;;;;3.08;1.40;;;;;;;17.26;76.26;101495.28;5097650;28;20066;-84
2023/07/17 00:11:46;;;;;;;4.85;1.60;;;;;;;17.28;76.03;101509.28;5098334;28;20047;-84
2023/07/17 00:14:13;;;;;;;2.83;1.50;;;;;;;17.29;76.39;101504.88;5079766;28;20028;-84
2023/07/17 00:16:38;;;;;;;4.03;1.52;;;;;;;17.26;75.98;101498.81;5075517;28;20098;-85
2023/07/17 00:19:04;;;;;;;5.63;1.60;;;;;;;17.26;76.15;101492.66;5077436;28;20031;-84
2023/07/17 00:21:29;;;;;;;4.13;1.52;;;;;;;17.21;76.27;101500.88;5077371;28;20324;-84
2023/07/17 00:23:57;;;;;;;6.10;1.92;;;;;;;17.19;76.35;101497.47;5077605;28;20102;-85
2023/07/17 00:26:23;;;;;;;3.58;1.80;;;;;;;17.20;76.48;101498.31;5077484;28;20060;-85
2023/07/17 00:28:48;;;;;;;3.33;1.45;;;;;;;17.18;76.54;101505.50;5077754;28;20069;-84
2023/07/17 00:31:13;;;;;;;3.97;1.70;;;;;;;17.17;76.40;101506.41;5077266;28;20028;-85
2023/07/17 00:33:39;;;;;;;2.25;1.42;;;;;;;17.18;76.33;101510.78;5075376;28;20137;-84
2023/07/17 00:36:04;;;;;;;7.30;1.90;;;;;;;17.16;76.30;101508.22;5077786;28;20090;-84
2023/07/17 00:38:29;;;;;;;2.50;1.35;;;;;;;17.15;76.40;101505.66;5075682;28;20016;-85
2023/07/17 00:40:55;;;;;;;5.70;1.58;;;;;;;17.14;76.58;101504.81;5076131;28;20019;-84
2023/07/17 00:43:20;;;;;;;4.90;1.52;;;;;;;17.14;76.49;101509.25;5076997;28;20032;-84
2023/07/17 00:45:46;;;;;;;6.47;2.58;;;;;;;17.12;76.57;101500.53;5077346;28;20024;-85
2023/07/17 00:48:11;;;;;;;4.03;1.70;;;;;;;17.10;76.79;101502.41;5077282;28;20035;-85
2023/07/17 00:50:38;;;;;;;4.28;1.73;;;;;;;17.11;76.47;101506.78;5076845;28;20040;-84
2023/07/17 00:53:04;;;;;;;4.68;1.88;;;;;;;17.08;76.64;101508.66;5077506;28;20531;-84
2023/07/17 00:55:31;;;;;;;3.30;1.70;;;;;;;17.05;76.53;101506.19;5076527;28;20032;-84
2023/07/17 00:57:57;;;;;;;7.13;1.70;;;;;;;17.06;76.79;101518.50;5068787;28;20042;-84
2023/07/17 01:00:23;;;;;;;4.05;1.70;;;;;;;17.05;76.71;101514.13;5076014;28;20285;-83
2023/07/17 01:02:52;;;;;;;3.38;1.63;;;;;;;17.03;76.90;101518.66;5077195;28;20028;-84
2023/07/17 01:05:17;;;;;;;4.32;2.08;;;;;;;17.03;76.85;101521.31;5075636;28;20029;-84
2023/07/17 01:07:43;;;;;;;5.70;1.52;;;;;;;17.03;77.02;101526.59;5076844;28;20112;-85
2023/07/17 01:10:09;;;;;;;7.80;1.88;;;;;;;17.00;77.47;101528.56;5077108;28;20089;-84
2023/07/17 01:12:35;;;;;;;4.45;2.00;;;;;;;17.00;77.64;101539.16;5076749;28;20144;-84
2023/07/17 01:15:02;;;;;;;4.68;1.95;;;;;;;16.98;77.79;101518.06;5079817;28;20324;-84
2023/07/17 01:17:27;;;;;;;2.78;1.50;;;;;;;17.00;77.63;101521.47;5096283;28;20023;-84
2023/07/17 01:19:53;;;;;;;4.18;1.95;;;;;;;16.99;77.28;101525.06;5081671;28;20120;-84
2023/07/17 01:22:23;;;;;;;5.45;1.75;;;;;;;17.01;77.27;101522.34;5076670;28;20377;-84
2023/07/17 01:24:48;;;;;;;5.47;1.88;;;;;;;16.97;77.64;101523.44;5082871;28;20036;-84
2023/07/17 01:27:14;;;;;;;6.47;2.00;;;;;;;16.97;77.26;101528.72;5078816;28;20123;-85
2023/07/17 01:29:39;;;;;;;5.50;2.08;;;;;;;16.95;77.62;101526.16;5076417;28;20029;-86
2023/07/17 01:32:05;;;;;;;4.28;2.17;;;;;;;16.94;77.53;101523.63;5077052;28;20285;-85
2023/07/17 01:34:30;;;;;;;5.15;2.38;;;;;;;16.89;77.56;101523.88;5085487;28;20043;-84
2023/07/17 01:36:56;;;;;;;5.15;1.95;;;;;;;16.82;77.56;101528.63;5096461;28;20111;-85
2023/07/17 01:39:21;;;;;;;3.10;1.80;;;;;;;16.82;77.79;101528.63;5091368;28;20344;-84
2023/07/17 01:41:47;;;;;;;6.57;2.55;;;;;;;16.81;77.95;101524.28;5077120;28;20024;-85
2023/07/17 01:44:12;;;;;;;4.93;1.95;;;;;;;16.80;77.87;101522.56;5076391;28;20083;-83
2023/07/17 01:46:37;;;;;;;5.80;1.92;;;;;;;16.80;77.82;101521.72;5075886;28;20099;-85
2023/07/17 01:49:03;;;;;;;2.78;2.13;;;;;;;16.79;78.04;101525.28;5058521;28;20150;-84
2023/07/17 01:51:28;;;;;;;10.77;2.70;;;;;;;16.76;77.95;101525.47;5075655;28;20024;-85
2023/07/17 01:53:54;;;;;;;8.00;2.72;;;;;;;16.71;78.15;101523.06;5076584;28;20099;-85
2023/07/17 01:56:19;;;;;;;6.82;2.90;;;;;;;16.72;78.03;101516.88;5075877;28;20261;-84
2023/07/17 01:58:44;;;;;;;6.13;2.22;;;;;;;16.72;78.12;101524.78;5076551;28;20344;-84
2023/07/17 02:01:10;;;;;;;4.03;2.10;;;;;;;16.72;78.10;101519.50;5076177;28;20024;-84
2023/07/17 02:03:36;;;;;;;5.72;2.30;;;;;;;16.70;78.29;101524.88;5077201;28;20634;-84
2023/07/17 02:06:02;;;;;;;6.57;2.70;;;;;;;16.68;78.38;101531.16;5095121;28;20359;-84
2023/07/17 02:08:27;;;;;;;6.88;2.90;;;;;;;16.67;78.24;101527.69;5094893;28;20023;-83
2023/07/17 02:10:53;;;;;;;4.25;2.35;;;;;;;16.67;78.23;101524.19;5079216;28;20066;-84
2023/07/17 02:13:18;;;;;;;3.20;2.50;;;;;;;16.66;78.35;101518.06;5057325;28;20028;-84
2023/07/17 02:15:44;;;;;;;8.23;3.03;;;;;;;16.67;78.11;101522.41;5085086;28;20048;-84
2023/07/17 02:18:10;;;;;;;3.88;2.67;;;;;;;16.66;78.36;101533.94;5095425;28;20417;-84
2023/07/17 02:20:35;;;;;;;5.88;2.75;;;;;;;16.64;78.16;101532.28;5066906;28;20322;-83
2023/07/17 02:23:01;;;;;;;9.07;2.90;;;;;;;16.63;78.60;101530.59;5090973;28;20222;-83
2023/07/17 02:25:27;;;;;;;5.13;2.75;;;;;;;16.61;78.66;101533.31;5094771;28;20044;-83
2023/07/17 02:27:52;;;;;;;6.57;3.10;;;;;;;16.60;78.68;101526.31;5095924;28;20035;-83
2023/07/17 02:30:18;;;;;;;5.03;2.45;;;;;;;16.60;78.79;101528.97;5076410;28;20227;-84
2023/07/17 02:32:44;;;;;;;4.45;3.05;;;;;;;16.58;78.89;101535.28;5076794;28;20051;-83
2023/07/17 02:35:10;;;;;;;7.10;2.55;;;;;;;16.57;79.24;101534.44;5075526;28;20077;-84
2023/07/17 02:37:35;;;;;;;5.10;2.90;;;;;;;16.57;79.42;101530.91;5072489;28;20060;-84
2023/07/17 02:40:01;;;;;;;6.72;3.08;;;;;;;16.57;79.38;101534.44;5075593;28;20040;-83
2023/07/17 02:42:26;;;;;;;5.25;2.38;;;;;;;16.57;79.24;101542.38;5075005;28;20029;-84
2023/07/17 02:44:52;;;;;;;8.48;3.22;;;;;;;16.57;79.26;101538.84;5075694;28;20081;-84
2023/07/17 02:47:17;;;;;;;3.90;3.00;;;;;;;16.55;79.27;101541.56;5075230;28;20022;-84
2023/07/17 02:49:43;;;;;;;7.07;3.10;;;;;;;16.57;79.54;101541.50;5075356;28;20031;-84
2023/07/17 02:52:09;;;;;;;8.82;3.75;;;;;;;16.54;79.78;101546.97;5057282;28;20038;-84
2023/07/17 02:54:39;;;;;;;7.05;3.35;;;;;;;16.54;79.60;101542.53;5074747;28;20095;-84
2023/07/17 02:57:05;;;;;;;4.80;3.15;;;;;;;16.56;79.64;101538.00;5075271;28;20343;-83
2023/07/17 02:59:30;;;;;;;7.18;3.22;;;;;;;16.55;79.59;101546.84;5074608;28;20036;-83
2023/07/17 03:01:56;;;;;;;6.60;3.67;;;;;;;16.53;80.06;101548.75;5075509;28;20055;-84
2023/07/17 03:04:21;;;;;;;5.65;3.17;;;;;;;16.52;80.08;101544.41;5082576;28;20212;-83
2023/07/17 03:06:48;;;;;;;4.97;3.20;;;;;;;16.51;80.36;101550.63;5094687;28;20106;-83
2023/07/17 03:09:13;;;;;;;6.45;3.33;;;;;;;16.50;80.54;101543.63;5091425;28;20051;-83
2023/07/17 03:11:39;;;;;;;6.35;3.25;;;;;;;16.50;80.40;101548.94;5074703;28;20310;-84
2023/07/17 03:14:04;;;;;;;5.20;3.13;;;;;;;16.51;80.37;101550.63;5075040;28;20040;-83
2023/07/17 03:16:29;;;;;;;4.32;3.30;;;;;;;16.51;80.59;101555.91;5089955;28;20126;-84
2023/07/17 03:18:55;;;;;;;6.97;2.90;;;;;;;16.50;80.84;101557.72;5090767;28;20094;-84
2023/07/17 03:21:22;;;;;;;4.43;2.83;;;;;;;16.50;81.13;101557.72;5056174;28;20032;-83
2023/07/17 03:23:47;;;;;;;5.85;2.97;;;;;;;16.50;81.03;101556.84;5079196;28;20077;-83
2023/07/17 03:26:13;;;;;;;10.75;3.83;;;;;;;16.49;80.86;101552.50;5079071;28;20362;-83
2023/07/17 03:28:38;;;;;;;5.30;3.42;;;;;;;16.48;81.32;101550.78;5078562;28;20055;-84
2023/07/17 03:31:04;;;;;;;5.38;3.40;;;;;;;16.47;81.25;101560.50;5078839;28;20028;-84
2023/07/17 03:33:32;;;;;;;6.82;3.65;;;;;;;16.47;81.15;101559.66;5079648;28;20162;-83
2023/07/17 03:35:57;;;;;;;;;;;;;;;16.47;80.80;101554.38;5087895;28;20048;-84
2023/07/17 03:38:23;;;;;;;13.20;4.27;;;;;;;16.46;80.84;101555.28;5078537;28;20200;-83
2023/07/17 03:40:48;;;;;;;9.15;3.85;;;;;;;16.44;80.80;101558.00;5078969;28;20091;-83
2023/07/17 03:43:14;;;;;;;10.68;4.30;;;;;;;16.44;81.03;101563.31;5098377;28;20204;-83
2023/07/17 03:45:39;;;;;;;8.65;4.13;;;;;;;16.43;81.15;101555.47;5097471;28;20103;-83
2023/07/17 03:48:05;;;;;;;11.15;4.40;;;;;;;16.40;81.19;101553.84;5098040;28;20043;-83
2023/07/17 03:50:30;;;;;;;8.27;3.65;;;;;;;16.40;81.42;101555.63;5097543;28;20043;-83
2023/07/17 03:52:56;;;;;;;4.95;3.38;;;;;;;16.37;81.59;101556.66;5081474;28;20261;-83
2023/07/17 03:55:21;;;;;;;10.50;4.40;;;;;;;16.36;81.57;101565.53;5077887;28;20032;-83
2023/07/17 03:57:46;;;;;;;9.65;3.97;;;;;;;16.35;81.76;101557.66;5078549;28;20263;-83
2023/07/17 04:00:15;;;;;;;8.55;3.95;;;;;;;16.35;81.88;101562.94;5078877;28;20216;-83
2023/07/17 04:02:42;;;;;;;7.55;3.97;;;;;;;16.34;81.80;101564.75;5077778;28;20063;-84
2023/07/17 04:05:07;;;;;;;12.48;4.80;;;;;;;16.31;81.56;101563.09;5092394;28;20020;-83
2023/07/17 04:07:33;;;;;;;6.43;4.10;;;;;;;16.34;81.56;101567.41;5078846;28;20073;-83
2023/07/17 04:09:58;;;;;;;13.77;4.63;;;;;;;16.34;81.47;101572.69;5070416;28;20039;-83
2023/07/17 04:12:24;;;;;;;7.43;4.15;;;;;;;16.35;81.58;101578.81;5077484;28;20060;-83
2023/07/17 04:14:49;;;;;;;10.75;4.50;;;;;;;16.35;81.64;101577.00;5079547;28;20032;-84
2023/07/17 04:17:14;;;;;;;8.98;4.50;;;;;;;16.33;82.29;101578.88;5078153;28;20059;-84
2023/07/17 04:19:40;;;;;;;7.47;4.22;;;;;;;16.32;82.37;101577.19;5077733;28;20032;-84
2023/07/17 04:22:05;;;;;;;8.57;4.53;;;;;;;16.31;82.55;101573.69;5060245;28;20035;-83
2023/07/17 04:24:31;;;;;;;8.20;4.20;;;;;;;16.31;82.62;101580.75;5077484;28;20032;-83
2023/07/17 04:26:56;;;;;;;7.97;4.15;;;;;;;16.31;83.13;101580.75;5077871;28;20066;-84
2023/07/17 04:29:22;;;;;;;7.47;4.25;;;;;;;16.34;82.93;101587.69;5077555;28;20066;-83
2023/07/17 04:31:48;;;;;;;7.38;4.25;;;;;;;16.35;82.89;101584.09;5077791;28;20087;-84
2023/07/17 04:34:14;;;;;;;10.93;4.97;;;;;;;16.34;83.05;101583.25;5076553;28;20036;-83
2023/07/17 04:36:39;;;;;;;10.23;4.65;;;;;;;16.35;83.31;101592.03;5076676;28;20039;-83
2023/07/17 04:39:05;;;;;;;10.60;4.90;;;;;;;16.35;83.13;101586.75;5077763;28;20437;-84
2023/07/17 04:41:31;;;;;;;9.57;4.60;;;;;;;16.32;83.64;101593.06;5076947;28;20291;-84
2023/07/17 04:43:56;;;;;;;12.95;4.75;;;;;;;16.33;83.37;101589.47;5077830;28;20438;-83
2023/07/17 04:46:21;;;;;;;15.77;5.03;;;;;;;16.33;83.56;101591.25;5076787;28;20047;-84
2023/07/17 04:48:47;;;;;;;13.18;5.50;;;;;;;16.31;83.89;101604.56;5059563;28;20020;-84
2023/07/17 04:51:12;;;;;;;9.73;4.95;;;;;;;16.31;84.01;101608.03;5077316;28;20271;-84
2023/07/17 04:53:37;;;;;;;10.73;5.13;;;;;;;16.31;83.95;101608.03;5058991;28;20035;-83
2023/07/17 04:56:03;;;;;;;11.68;5.32;;;;;;;16.31;84.01;101605.41;5077553;28;20099;-84
2023/07/17 04:58:32;;;;;;;15.15;6.10;;;;;;;16.31;84.23;101602.75;5077051;28;20032;-83
2023/07/17 05:00:58;;;;;;;9.07;4.93;;;;;;;16.33;84.21;101605.31;5059279;28;20020;-83
2023/07/17 05:03:24;;;;;;;9.00;5.40;;;;;;;16.33;84.09;101610.59;5076695;28;20032;-83
2023/07/17 05:05:52;;;;;;;12.82;5.43;;;;;;;16.34;84.31;101622.06;5081750;28;20071;-83
2023/07/17 05:08:17;;;;;;;11.13;5.55;;;;;;;16.34;84.41;101614.13;5076874;28;20096;-83
2023/07/17 05:10:43;;;;;;;11.13;5.90;;;;;;;16.31;84.71;101623.91;5059035;28;20276;-83
2023/07/17 05:13:09;;;;;;;15.05;6.72;;;;;;;16.31;84.96;101621.25;5059075;28;20331;-83
2023/07/17 05:15:34;;;;;;;11.65;5.53;;;;;;;16.34;85.50;101622.91;5084224;28;20040;-83
2023/07/17 05:18:00;;;;;;;15.88;6.28;;;;;;;16.37;85.72;101628.03;5075878;28;20315;-83
2023/07/17 05:20:25;;;;;;;9.95;5.70;;;;;;;16.39;85.52;101638.50;5077011;28;20039;-84
2023/07/17 05:22:51;;;;;;;14.10;5.88;;;;;;;16.39;86.09;101641.16;5077338;28;20335;-83
2023/07/17 05:25:16;;;;;;;11.30;5.63;;;;;;;16.37;86.21;101637.72;5076746;28;20035;-84
2023/07/17 05:27:41;;;;;;;12.80;5.80;;;;;;;16.35;86.60;101647.53;5058882;28;20032;-83
2023/07/17 05:30:07;;;;;;;9.52;5.93;;;;;;;16.34;86.69;101637.91;5059013;28;20235;-84
2023/07/17 05:32:32;;;;;;;10.70;5.75;;;;;;;16.34;86.85;101651.13;5076402;28;20025;-83
2023/07/17 05:34:58;;;;;;;13.13;6.03;;;;;;;16.36;86.80;101650.09;5090035;28;20235;-83
2023/07/17 05:37:23;;;;;;;7.80;5.68;;;;;;;16.38;87.09;101650.03;5095770;28;20035;-83
2023/07/17 05:39:49;;;;;;;11.45;5.57;;;;;;;16.39;86.91;101647.31;5088769;28;20392;-83
2023/07/17 05:42:14;;;;;;;10.90;5.47;;;;;;;16.41;87.08;101652.50;5076559;28;20104;-84
2023/07/17 05:44:40;;;;;;;10.05;6.20;;;;;;;16.42;86.97;101651.56;5075794;28;20325;-83
2023/07/17 05:47:05;;;;;;;8.95;5.60;;;;;;;16.45;86.98;101648.78;5076214;28;20127;-83
2023/07/17 05:49:31;;;;;;;10.65;5.65;;;;;;;16.47;86.83;101657.47;5075823;28;20111;-84
2023/07/17 05:51:57;;;;;;;11.25;5.65;;;;;;;16.49;86.61;101656.44;5077649;28;20083;-83
2023/07/17 05:54:22;;;;;;;9.48;5.50;;;;;;;16.51;86.81;101661.66;5075522;28;20095;-84
2023/07/17 05:56:47;;;;;;;12.55;6.03;;;;;;;16.54;86.86;101664.16;5076127;28;20250;-84
2023/07/17 05:59:13;;;;;;;11.50;5.63;;;;;;;16.58;86.65;101667.50;5069548;28;20036;-84
2023/07/17 06:01:38;;;;;;;18.58;6.47;;;;;;;16.61;86.21;101670.00;5057137;28;20027;-83
2023/07/17 06:04:04;;;;;;;9.50;5.30;;;;;;;16.61;86.33;101668.19;5076591;28;20362;-84
2023/07/17 06:06:29;;;;;;;9.70;5.70;;;;;;;16.63;86.13;101668.94;5057768;28;20024;-84
2023/07/17 06:08:55;;;;;;;11.95;5.63;;;;;;;16.66;86.41;101682.03;5075733;28;20036;-84
2023/07/17 06:11:21;;;;;;;12.52;5.80;;;;;;;16.68;86.24;101681.91;5078911;28;20032;-83
2023/07/17 06:13:51;;;;;;;13.70;5.70;;;;;;;16.68;86.12;101680.16;5095157;28;20144;-85
2023/07/17 06:16:17;;;;;;;15.75;5.70;;;;;;;16.68;85.67;101685.44;5095047;28;20307;-85
2023/07/17 06:18:43;;;;;;;10.40;5.05;;;;;;;16.70;84.88;101682.72;5095454;28;20031;-84
2023/07/17 06:21:08;;;;;;;8.43;4.28;;;;;;;16.74;84.78;101686.91;5083715;28;20036;-84
2023/07/17 06:23:33;;;;;;;6.35;3.83;;;;;;;16.78;84.43;101687.59;5075318;28;20066;-84
2023/07/17 06:26:00;;;;;;;6.68;3.55;;;;;;;16.81;83.42;101692.72;5075747;28;20094;-84
2023/07/17 06:28:26;;;;;;;6.78;3.67;;;;;;;16.83;82.69;101690.88;5075223;28;20036;-83
2023/07/17 06:30:52;;;;;;;6.38;3.35;;;;;;;16.81;81.51;101695.38;5070599;28;20070;-84
2023/07/17 06:33:17;;;;;;;9.23;3.30;;;;;;;16.81;80.87;101698.03;5057275;28;20247;-84
2023/07/17 06:35:46;;;;;;;8.10;3.17;;;;;;;16.82;81.09;101697.91;5076086;28;20109;-85
2023/07/17 06:38:11;;;;;;;2.95;2.58;;;;;;;16.85;81.18;101699.59;5095248;28;20024;-85
2023/07/17 06:40:38;;;;;;;6.35;3.20;;;;;;;16.84;80.58;101698.72;5079888;28;20235;-84
2023/07/17 06:43:03;;;;;;;8.85;3.33;;;;;;;16.87;80.34;101703.00;5075569;28;20025;-84
2023/07/17 06:45:30;;;;;;;4.53;2.95;;;;;;;16.88;79.86;101705.56;5075122;28;20356;-85
2023/07/17 06:47:55;;;;;;;2.90;2.13;;;;;;;16.91;80.27;101709.00;5075745;28;20366;-85
2023/07/17 06:50:20;;;;;;;7.25;2.60;;;;;;;16.91;78.63;101717.78;5075021;28;20446;-84
2023/07/17 06:52:46;;;;;;;5.45;2.80;;;;;;;16.93;78.04;101705.31;5057269;28;20029;-84
2023/07/17 06:55:11;;;;;;;6.93;3.08;;;;;;;16.95;77.96;101714.00;5057183;28;20331;-83
2023/07/17 06:57:37;;;;;;;7.72;2.50;;;;;;;16.95;77.21;101713.16;5074601;28;20073;-85
2023/07/17 07:00:05;;;;;;;7.63;2.40;;;;;;;16.97;77.47;101714.81;5075260;28;20036;-84
2023/07/17 07:02:31;;;;;;;4.60;2.17;;;;;;;17.00;77.65;101713.78;5067416;28;20032;-85
2023/07/17 07:04:56;;;;;;;2.55;1.95;;;;;;;17.02;77.45;101719.84;5077180;28;20216;-84
2023/07/17 07:07:22;;;;;;;3.72;1.83;;;;;;;17.02;77.07;101723.34;5074699;28;20101;-85
2023/07/17 07:09:47;;;;;;;3.17;2.20;;;;;;;17.03;77.06;101732.16;5073660;28;20029;-85
2023/07/17 07:12:13;;;;;;;3.30;1.83;;;;;;;17.02;77.17;101735.72;5058102;28;20099;-84
2023/07/17 07:14:38;;;;;;;9.60;3.03;;;;;;;16.99;76.44;101739.41;5055990;28;20355;-84
2023/07/17 07:17:04;;;;;;;6.22;2.20;;;;;;;17.01;76.81;101736.69;5093911;28;20027;-84
2023/07/17 07:19:29;;;;;;;6.72;2.30;;;;;;;17.03;76.76;101746.22;5093386;28;20038;-85
2023/07/17 07:21:55;;;;;;;3.63;2.17;;;;;;;17.05;75.96;101733.75;5094173;28;20081;-84
2023/07/17 07:24:20;;;;;;;3.25;1.85;;;;;;;17.10;76.09;101740.59;5074810;28;20035;-84
2023/07/17 07:26:45;;;;;;;4.50;1.92;;;;;;;17.15;76.17;101743.84;5094075;28;20028;-84
2023/07/17 07:29:11;;;;;;;5.20;1.83;;;;;;;17.16;75.70;101749.06;5094185;28;20043;-84
2023/07/17 07:31:36;;;;;;;4.28;2.05;;;;;;;17.15;75.56;101750.00;5093194;28;20036;-84
2023/07/17 07:34:02;;;;;;;2.30;1.77;;;;;;;17.16;75.45;101751.72;5093448;28;20308;-85
2023/07/17 07:36:28;;;;;;;6.38;2.03;;;;;;;17.15;74.79;101757.09;5074985;28;20111;-84
2023/07/17 07:38:55;;;;;;;4.47;1.85;;;;;;;17.14;74.46;101758.88;5091774;28;20032;-85
2023/07/17 07:41:21;;;;;;;2.08;1.52;;;;;;;17.16;74.55;101762.31;5076383;28;20036;-84
2023/07/17 07:43:47;;;;;;;3.42;1.80;;;;;;;17.17;74.50;101755.22;5090174;28;20055;-84
2023/07/17 07:46:12;;;;;;;6.13;2.58;;;;;;;17.19;72.81;101767.44;5094720;28;20333;-85
2023/07/17 07:48:38;;;;;;;3.90;1.67;;;;;;;17.21;73.19;101765.56;5075315;28;20092;-85
2023/07/17 07:51:04;;;;;;;3.97;2.30;;;;;;;17.24;73.38;101767.19;5094674;28;20032;-85
2023/07/17 07:53:31;;;;;;;3.17;1.63;;;;;;;17.26;73.36;101773.25;5094070;28;20039;-84
2023/07/17 07:55:56;;;;;;;4.82;1.98;;;;;;;17.30;73.60;101765.97;5076350;28;20036;-86
2023/07/17 07:58:22;;;;;;;4.90;1.83;;;;;;;17.31;73.19;101771.19;5094262;28;20073;-84
2023/07/17 08:00:47;;;;;;;3.08;1.75;;;;;;;17.32;72.97;101774.69;5094726;28;20051;-85
2023/07/17 08:03:13;;;;;;;3.53;1.90;;;;;;;17.30;73.08;101774.81;5093848;28;20032;-86
2023/07/17 08:05:38;;;;;;;3.15;1.70;;;;;;;17.32;73.06;101769.41;5094449;28;20020;-86
2023/07/17 08:08:04;;;;;;;6.07;2.13;;;;;;;17.32;73.04;101772.03;5095197;28;20078;-83
2023/07/17 08:10:30;;;;;;;4.10;1.95;;;;;;;17.34;73.38;101776.34;5097604;28;20255;-85
2023/07/17 08:12:55;;;;;;;4.80;1.90;;;;;;;17.40;73.39;101777.78;5098711;28;20044;-85
2023/07/17 08:15:21;;;;;;;2.47;1.90;;;;;;;17.46;73.52;101777.44;5097027;28;20086;-84
2023/07/17 08:17:48;;;;;;;4.68;1.83;;;;;;;17.49;73.11;101785.22;5057342;28;20086;-84
2023/07/17 08:20:13;;;;;;;2.05;1.73;;;;;;;17.52;72.71;101789.50;5039503;28;20037;-84
2023/07/17 08:22:39;;;;;;;2.30;1.20;;;;;;;17.52;72.88;101792.13;5075167;28;20043;-85
2023/07/17 08:25:05;;;;;;;1.98;1.52;;;;;;;17.52;72.58;101784.19;5076599;28;20059;-85
2023/07/17 08:27:30;;;;;;;3.13;1.40;;;;;;;17.51;72.60;101786.00;5057015;28;20064;-84
2023/07/17 08:29:55;;;;;;;2.83;1.33;;;;;;;17.51;72.40;101787.81;5074330;28;20033;-83
2023/07/17 08:32:21;;;;;;;3.65;1.70;;;;;;;17.49;72.36;101794.97;5067212;28;20043;-84
2023/07/17 08:34:46;;;;;;;4.90;1.60;;;;;;;17.47;72.25;101800.34;5075864;28;20059;-84
2023/07/17 08:37:11;;;;;;;1.35;1.10;;;;;;;17.46;72.27;101795.97;5060712;28;20035;-85
2023/07/17 08:39:37;;;;;;;6.93;2.22;;;;;;;17.45;72.41;101802.22;5058560;28;20065;-85
2023/07/17 08:42:02;;;;;;;3.60;1.30;;;;;;;17.44;72.45;101804.03;5077199;28;20329;-86
2023/07/17 08:44:29;;;;;;;3.05;1.60;;;;;;;17.42;72.64;101807.69;5075770;28;20346;-84
2023/07/17 08:46:56;;;;;;;6.28;1.48;;;;;;;17.42;72.93;101810.34;5077117;28;20259;-84
2023/07/17 08:49:22;;;;;;;2.25;1.50;;;;;;;17.41;73.55;101804.19;5076398;28;20405;-83
2023/07/17 08:51:49;;;;;;;7.28;2.28;;;;;;;17.40;74.00;101806.91;5072525;28;20032;-84
2023/07/17 08:54:16;;;;;;;6.25;2.08;;;;;;;17.39;74.47;101813.13;5058747;28;20028;-84
2023/07/17 08:56:44;;;;;;;5.50;2.88;;;;;;;17.38;75.43;101814.09;5072786;28;20028;-84
2023/07/17 08:59:10;;;;;;;4.72;2.20;;;;;;;17.38;76.02;101808.81;5056246;28;20032;-85
2023/07/17 09:01:36;;;;;;;3.90;2.35;;;;;;;17.38;76.40;101806.16;5072909;28;20020;-85
2023/07/17 09:04:06;;;;;;;4.32;1.88;;;;;;;17.42;76.65;101807.69;5049636;28;20025;-85
2023/07/17 09:06:31;;;;;;;8.75;2.55;;;;;;;17.46;76.79;101812.75;5075415;28;20175;-85
2023/07/17 09:08:57;;;;;;;3.85;2.38;;;;;;;17.50;76.45;101805.50;5077152;28;20044;-86
2023/07/17 09:11:22;;;;;;;5.70;2.22;;;;;;;17.52;76.23;101800.97;5076730;28;20331;-84
2023/07/17 09:13:51;;;;;;;8.45;2.60;;;;;;;17.58;76.54;101810.38;5076781;28;20095;-84
2023/07/17 09:16:24;;;;;;;7.97;2.72;;;;;;;17.64;77.92;101808.25;5090805;28;20056;-84
2023/07/17 09:18:52;;;;;;;5.25;2.58;;;;;;;17.68;77.44;101814.19;5078626;28;20071;-85
2023/07/17 09:21:19;;;;;;;6.50;2.58;;;;;;;17.69;77.18;101812.41;5096122;28;20084;-85
2023/07/17 09:23:49;;;;;;;5.88;2.67;;;;;;;17.68;77.53;101819.50;5075319;28;20231;-85
2023/07/17 09:26:17;;;;;;;3.97;2.20;;;;;;;17.70;77.43;101817.66;5082958;28;20032;-85
2023/07/17 09:28:55;;;;;;;3.40;2.17;;;;;;;17.71;77.10;101816.69;5078784;28;20064;-84
2023/07/17 09:31:24;;;;;;;4.03;2.50;;;;;;;17.77;77.29;101824.31;5078595;28;20032;-84
2023/07/17 09:33:50;;;;;;;6.57;2.65;;;;;;;17.83;77.50;101823.13;5075027;28;20051;-85
2023/07/17 09:36:16;;;;;;;4.50;2.63;;;;;;;17.89;78.20;101824.59;5083692;28;20327;-85
2023/07/17 09:38:41;;;;;;;5.90;2.35;;;;;;;17.91;77.98;101822.72;5078587;28;20047;-86
2023/07/17 09:41:17;;;;;;;6.70;3.08;;;;;;;17.91;77.97;101833.31;5081867;28;20346;-85
2023/07/17 09:43:42;;;;;;;3.22;2.00;;;;;;;17.90;77.62;101826.28;5077306;28;20166;-86
2023/07/17 09:46:09;;;;;;;4.47;2.53;;;;;;;17.89;78.59;101835.19;5083170;28;20043;-87
2023/07/17 09:48:35;;;;;;;6.85;2.80;;;;;;;17.86;78.29;101836.19;5077692;28;20051;-86
2023/07/17 09:51:02;;;;;;;5.00;2.72;;;;;;;17.84;78.48;101838.06;5082403;28;20063;-85
2023/07/17 09:53:29;;;;;;;5.17;3.90;;;;;;;17.82;79.19;101834.63;5075399;28;20072;-86
2023/07/17 09:55:56;;;;;;;8.63;4.13;;;;;;;17.81;79.42;101832.94;5083373;28;20028;-86
2023/07/17 09:58:24;;;;;;;6.95;3.25;;;;;;;17.81;79.42;101838.25;5078036;28;20040;-87
2023/07/17 10:00:53;;;;;;;10.90;4.00;;;;;;;17.84;80.17;101841.59;5085393;28;20047;-86
2023/07/17 10:03:21;;;;;;;6.40;3.30;;;;;;;17.87;80.32;101848.53;5060917;28;20095;-86
2023/07/17 10:05:47;;;;;;;6.28;3.10;;;;;;;17.87;79.96;101848.53;5078077;28;20235;-86
2023/07/17 10:08:15;;;;;;;8.75;3.83;;;;;;;17.86;79.85;101843.31;5078030;28;20347;-87
2023/07/17 10:10:41;;;;;;;8.07;3.83;;;;;;;17.85;79.80;101847.75;5078640;28;20039;-85
2023/07/17 10:13:08;;;;;;;6.88;3.47;;;;;;;17.85;79.80;101850.41;5077280;28;20327;-85
2023/07/17 10:15:35;;;;;;;9.20;3.78;;;;;;;17.87;80.82;101853.81;5081482;28;20037;-86
2023/07/17 10:18:00;;;;;;;11.05;4.22;;;;;;;17.84;80.08;101849.53;5078207;28;20028;-85
2023/07/17 10:20:29;;;;;;;11.82;3.90;;;;;;;17.84;79.83;101851.31;5060275;28;20035;-85
2023/07/17 10:22:54;;;;;;;;;;;;;;;17.84;80.07;101862.78;5079607;28;20231;-85
2023/07/17 10:25:19;;;;;;;8.30;3.97;;;;;;;17.86;80.59;101861.84;5077552;28;20022;-84
2023/07/17 10:27:47;;;;;;;6.55;3.25;;;;;;;17.85;80.35;101868.97;5060108;28;20286;-87
2023/07/17 10:30:31;;;;;;;6.18;3.38;;;;;;;17.84;78.85;101875.16;5062145;28;20037;-85
2023/07/17 10:33:16;;;;;;;5.82;2.95;;;;;;;17.79;77.11;101869.25;5070989;28;20090;-84
2023/07/17 10:35:54;;;;;;;7.03;3.40;;;;;;;17.80;77.96;101876.25;5077608;28;20024;-85
2023/07/17 10:38:26;;;;;;;7.57;3.60;;;;;;;17.83;77.61;101871.66;5078715;28;20090;-86
2023/07/17 10:41:23;;;;;;;5.57;3.17;;;;;;;17.89;77.84;101867.84;5080996;28;20306;-85
2023/07/17 10:43:54;;;;;;;6.43;3.45;;;;;;;17.93;77.35;101876.47;5071418;28;20235;-85
2023/07/17 10:46:19;;;;;;;5.35;2.70;;;;;;;17.98;77.21;101877.09;5076947;28;20360;-84
2023/07/17 10:48:45;;;;;;;6.20;3.05;;;;;;;18.05;76.83;101872.31;5056962;28;20028;-83
2023/07/17 10:51:10;;;;;;;4.30;2.78;;;;;;;18.12;77.28;101876.28;5056890;28;20263;-84
2023/07/17 10:53:36;;;;;;;4.40;2.78;;;;;;;18.19;77.04;101867.06;5073823;28;20036;-85
2023/07/17 10:56:01;;;;;;;11.38;3.78;;;;;;;18.24;76.96;101872.97;5071646;28;20063;-85
2023/07/17 10:58:27;;;;;;;8.05;4.75;;;;;;;18.26;77.29;101875.53;5073904;28;20102;-85
2023/07/17 11:00:52;;;;;;;6.28;3.67;;;;;;;18.29;77.68;101872.72;5079130;28;20123;-85
2023/07/17 11:03:26;;;;;;;8.80;3.90;;;;;;;18.30;77.38;101871.75;5081837;28;20043;-84
2023/07/17 11:05:55;;;;;;;7.95;3.83;;;;;;;18.32;77.16;101876.03;5085990;28;20087;-85
2023/07/17 11:08:24;;;;;;;9.05;3.63;;;;;;;18.37;76.93;101867.81;5086115;28;20059;-85
2023/07/17 11:10:49;;;;;;;6.13;3.33;;;;;;;18.44;76.79;101871.81;5080116;28;20043;-85
2023/07/17 11:13:15;;;;;;;10.88;3.70;;;;;;;18.51;76.23;101875.84;5089290;28;20035;-84
2023/07/17 11:15:42;;;;;;;9.65;4.10;;;;;;;18.57;75.32;101870.19;5078094;28;20044;-84
2023/07/17 11:18:07;;;;;;;5.75;3.80;;;;;;;18.62;75.68;101869.91;5080634;28;20060;-84
2023/07/17 11:20:33;;;;;;;7.97;3.72;;;;;;;18.70;75.75;101864.16;5078863;28;20067;-85